sensor_id;sensor_type;location;lat;lon;timestamp;pressure;altitude;pressure_sealevel;temperature;humidity
52137;BME280;69622;49.570;10.986;2024-02-04T00:01:20;99250.91;;;7.38;100.00
52137;BME280;69622;49.570;10.986;2024-02-04T00:04:21;99253.16;;;7.46;100.00
52137;BME280;69622;49.570;10.986;2024-02-04T00:07:25;99255.09;;;7.41;100.00
52137;BME280;69622;49.570;10.986;2024-02-04T00:10:26;99245.53;;;7.43;100.00
52137;BME280;69622;49.570;10.986;2024-02-04T00:13:28;99256.47;;;7.31;100.00
52137;BME280;69622;49.570;10.986;2024-02-04T00:16:29;99243.00;;;7.41;100.00
52137;BME280;69622;49.570;10.986;2024-02-04T00:19:31;99241.03;;;7.29;100.00
52137;BME280;69622;49.570;10.986;2024-02-04T00:22:32;99234.69;;;7.35;100.00
52137;BME280;69622;49.570;10.986;2024-02-04T00:25:35;99230.94;;;7.23;100.00
52137;BME280;69622;49.570;10.986;2024-02-04T00:28:36;99231.50;;;7.30;100.00
52137;BME280;69622;49.570;10.986;2024-02-04T00:31:38;99217.13;;;7.41;100.00
52137;BME280;69622;49.570;10.986;2024-02-04T00:34:39;99227.19;;;7.47;100.00
52137;BME280;69622;49.570;10.986;2024-02-04T00:37:41;99228.44;;;7.21;100.00
52137;BME280;69622;49.570;10.986;2024-02-04T00:40:42;99219.09;;;7.36;100.00
52137;BME280;69622;49.570;10.986;2024-02-04T00:43:44;99214.81;;;7.18;100.00
52137;BME280;69622;49.570;10.986;2024-02-04T00:46:45;99229.59;;;7.33;100.00
52137;BME280;69622;49.570;10.986;2024-02-04T00:49:47;99227.09;;;7.32;100.00
52137;BME280;69622;49.570;10.986;2024-02-04T00:52:48;99228.38;;;7.40;100.00
52137;BME280;69622;49.570;10.986;2024-02-04T00:55:50;99228.53;;;7.37;100.00
52137;BME280;69622;49.570;10.986;2024-02-04T00:58:51;99214.50;;;7.24;100.00
52137;BME280;69622;49.570;10.986;2024-02-04T01:01:53;99211.94;;;7.24;100.00
52137;BME280;69622;49.570;10.986;2024-02-04T01:04:54;99225.69;;;7.25;100.00
52137;BME280;69622;49.570;10.986;2024-02-04T01:07:56;99231.81;;;7.41;100.00
52137;BME280;69622;49.570;10.986;2024-02-04T01:10:57;99234.09;;;7.30;100.00
52137;BME280;69622;49.570;10.986;2024-02-04T01:13:59;99231.28;;;7.34;100.00
52137;BME280;69622;49.570;10.986;2024-02-04T01:17:00;99227.94;;;7.32;100.00
52137;BME280;69622;49.570;10.986;2024-02-04T01:20:02;99217.44;;;7.35;100.00
52137;BME280;69622;49.570;10.986;2024-02-04T01:23:03;99221.00;;;7.33;100.00
52137;BME280;69622;49.570;10.986;2024-02-04T01:26:05;99218.13;;;7.39;100.00
52137;BME280;69622;49.570;10.986;2024-02-04T01:29:06;99218.13;;;7.39;100.00
52137;BME280;69622;49.570;10.986;2024-02-04T01:32:08;99207.16;;;7.34;100.00
52137;BME280;69622;49.570;10.986;2024-02-04T01:35:09;99207.66;;;7.42;100.00
52137;BME280;69622;49.570;10.986;2024-02-04T01:38:11;99208.91;;;7.33;100.00
52137;BME280;69622;49.570;10.986;2024-02-04T01:41:12;99204.25;;;7.40;100.00
52137;BME280;69622;49.570;10.986;2024-02-04T01:44:14;99198.72;;;7.30;100.00
52137;BME280;69622;49.570;10.986;2024-02-04T01:47:17;99204.03;;;7.27;100.00
52137;BME280;69622;49.570;10.986;2024-02-04T01:50:19;99197.72;;;7.33;100.00
52137;BME280;69622;49.570;10.986;2024-02-04T01:53:22;99201.84;;;7.37;100.00
52137;BME280;69622;49.570;10.986;2024-02-04T01:56:24;99188.28;;;7.32;100.00
52137;BME280;69622;49.570;10.986;2024-02-04T01:59:27;99193.53;;;7.30;100.00
52137;BME280;69622;49.570;10.986;2024-02-04T02:02:32;99200.31;;;7.33;100.00
52137;BME280;69622;49.570;10.986;2024-02-04T02:05:34;99200.84;;;7.39;100.00
52137;BME280;69622;49.570;10.986;2024-02-04T02:08:36;99205.19;;;7.39;100.00
52137;BME280;69622;49.570;10.986;2024-02-04T02:11:41;99205.50;;;7.33;100.00
52137;BME280;69622;49.570;10.986;2024-02-04T02:18:10;99210.59;;;7.34;100.00
52137;BME280;69622;49.570;10.986;2024-02-04T02:21:41;99204.34;;;7.38;100.00
52137;BME280;69622;49.570;10.986;2024-02-04T02:24:46;99205.72;;;7.28;100.00
52137;BME280;69622;49.570;10.986;2024-02-04T02:27:51;99200.53;;;7.28;100.00
52137;BME280;69622;49.570;10.986;2024-02-04T02:30:53;99199.00;;;7.41;100.00
52137;BME280;69622;49.570;10.986;2024-02-04T02:33:54;99202.66;;;7.37;100.00
52137;BME280;69622;49.570;10.986;2024-02-04T02:37:06;99204.16;;;7.43;100.00
52137;BME280;69622;49.570;10.986;2024-02-04T02:43:39;99218.19;;;7.37;100.00
52137;BME280;69622;49.570;10.986;2024-02-04T02:46:42;99222.38;;;7.40;100.00
52137;BME280;69622;49.570;10.986;2024-02-04T02:49:44;99222.00;;;7.30;100.00
52137;BME280;69622;49.570;10.986;2024-02-04T02:52:45;99216.81;;;7.30;100.00
52137;BME280;69622;49.570;10.986;2024-02-04T02:55:47;99213.56;;;7.27;100.00
52137;BME280;69622;49.570;10.986;2024-02-04T02:58:49;99209.25;;;7.26;100.00
52137;BME280;69622;49.570;10.986;2024-02-04T03:01:50;99215.31;;;7.07;100.00
52137;BME280;69622;49.570;10.986;2024-02-04T03:04:52;99210.72;;;7.14;100.00
52137;BME280;69622;49.570;10.986;2024-02-04T03:07:53;99205.31;;;7.18;100.00
52137;BME280;69622;49.570;10.986;2024-02-04T03:10:54;99194.50;;;7.10;100.00
52137;BME280;69622;49.570;10.986;2024-02-04T03:13:56;99205.16;;;7.21;100.00
52137;BME280;69622;49.570;10.986;2024-02-04T03:16:58;99203.22;;;7.08;100.00
52137;BME280;69622;49.570;10.986;2024-02-04T03:19:59;99206.97;;;7.19;100.00
52137;BME280;69622;49.570;10.986;2024-02-04T03:23:01;99216.63;;;7.16;100.00
52137;BME280;69622;49.570;10.986;2024-02-04T03:26:02;99220.72;;;7.03;100.00
52137;BME280;69622;49.570;10.986;2024-02-04T03:29:04;99211.41;;;7.17;100.00
52137;BME280;69622;49.570;10.986;2024-02-04T03:32:08;99215.56;;;7.20;100.00
52137;BME280;69622;49.570;10.986;2024-02-04T03:35:10;99214.84;;;6.99;100.00
52137;BME280;69622;49.570;10.986;2024-02-04T03:38:11;99214.47;;;7.07;100.00
52137;BME280;69622;49.570;10.986;2024-02-04T03:41:12;99219.25;;;6.97;100.00
52137;BME280;69622;49.570;10.986;2024-02-04T03:44:14;99222.16;;;7.08;100.00
52137;BME280;69622;49.570;10.986;2024-02-04T03:47:15;99216.66;;;6.97;100.00
52137;BME280;69622;49.570;10.986;2024-02-04T03:50:17;99227.56;;;7.04;100.00
52137;BME280;69622;49.570;10.986;2024-02-04T03:53:18;99220.72;;;7.03;100.00
52137;BME280;69622;49.570;10.986;2024-02-04T03:56:20;99228.47;;;7.03;100.00
52137;BME280;69622;49.570;10.986;2024-02-04T03:59:21;99219.38;;;6.94;100.00
52137;BME280;69622;49.570;10.986;2024-02-04T04:02:23;99216.66;;;6.78;100.00
52137;BME280;69622;49.570;10.986;2024-02-04T04:05:24;99226.59;;;6.69;100.00
52137;BME280;69622;49.570;10.986;2024-02-04T04:08:27;99224.56;;;6.75;100.00
52137;BME280;69622;49.570;10.986;2024-02-04T04:11:29;99219.53;;;6.91;100.00
52137;BME280;69622;49.570;10.986;2024-02-04T04:14:31;99222.88;;;6.74;100.00
52137;BME280;69622;49.570;10.986;2024-02-04T04:17:32;99217.38;;;6.63;100.00
52137;BME280;69622;49.570;10.986;2024-02-04T04:20:33;99230.00;;;6.69;100.00
52137;BME280;69622;49.570;10.986;2024-02-04T04:23:35;99225.69;;;6.70;100.00
52137;BME280;69622;49.570;10.986;2024-02-04T04:26:36;99220.78;;;6.82;100.00
52137;BME280;69622;49.570;10.986;2024-02-04T04:29:38;99222.63;;;6.80;100.00
52137;BME280;69622;49.570;10.986;2024-02-04T04:32:39;99211.84;;;6.71;100.00
52137;BME280;69622;49.570;10.986;2024-02-04T04:35:41;99210.03;;;6.73;100.00
52137;BME280;69622;49.570;10.986;2024-02-04T04:38:42;99206.13;;;6.83;100.00
52137;BME280;69622;49.570;10.986;2024-02-04T04:41:44;99204.38;;;6.65;100.00
52137;BME280;69622;49.570;10.986;2024-02-04T04:44:46;99199.22;;;6.83;100.00
52137;BME280;69622;49.570;10.986;2024-02-04T04:47:48;99193.47;;;6.96;100.00
52137;BME280;69622;49.570;10.986;2024-02-04T04:50:49;99192.56;;;6.97;100.00
52137;BME280;69622;49.570;10.986;2024-02-04T04:53:51;99191.31;;;6.86;100.00
52137;BME280;69622;49.570;10.986;2024-02-04T04:56:52;99194.44;;;6.93;100.00
52137;BME280;69622;49.570;10.986;2024-02-04T04:59:54;99194.38;;;6.76;100.00
52137;BME280;69622;49.570;10.986;2024-02-04T05:02:55;99187.88;;;6.86;100.00
52137;BME280;69622;49.570;10.986;2024-02-04T05:05:56;99192.97;;;6.87;100.00
52137;BME280;69622;49.570;10.986;2024-02-04T05:08:58;99192.84;;;6.90;100.00
52137;BME280;69622;49.570;10.986;2024-02-04T05:12:02;99190.25;;;6.90;100.00
52137;BME280;69622;49.570;10.986;2024-02-04T05:15:05;99193.88;;;6.86;100.00
52137;BME280;69622;49.570;10.986;2024-02-04T05:18:06;99173.06;;;6.89;100.00
52137;BME280;69622;49.570;10.986;2024-02-04T05:21:08;99179.81;;;6.92;100.00
52137;BME280;69622;49.570;10.986;2024-02-04T05:24:10;99176.56;;;6.70;100.00
52137;BME280;69622;49.570;10.986;2024-02-04T05:27:11;99169.72;;;6.87;100.00
52137;BME280;69622;49.570;10.986;2024-02-04T05:30:13;99161.97;;;6.87;100.00
52137;BME280;69622;49.570;10.986;2024-02-04T05:33:15;99174.19;;;6.84;100.00
52137;BME280;69622;49.570;10.986;2024-02-04T05:36:16;99176.72;;;6.85;100.00
52137;BME280;69622;49.570;10.986;2024-02-04T05:39:18;99175.59;;;6.72;100.00
52137;BME280;69622;49.570;10.986;2024-02-04T05:42:19;99184.94;;;6.75;100.00
52137;BME280;69622;49.570;10.986;2024-02-04T05:45:21;99178.44;;;6.85;100.00
52137;BME280;69622;49.570;10.986;2024-02-04T05:48:22;99175.94;;;6.83;100.00
52137;BME280;69622;49.570;10.986;2024-02-04T05:51:24;99171.19;;;6.74;100.00
52137;BME280;69622;49.570;10.986;2024-02-04T05:54:25;99170.09;;;6.80;100.00
52137;BME280;69622;49.570;10.986;2024-02-04T05:57:27;99177.97;;;6.77;100.00
52137;BME280;69622;49.570;10.986;2024-02-04T06:00:28;99179.50;;;6.62;100.00
52137;BME280;69622;49.570;10.986;2024-02-04T06:03:30;99170.56;;;6.69;100.00
52137;BME280;69622;49.570;10.986;2024-02-04T06:06:32;99169.88;;;6.66;100.00
52137;BME280;69622;49.570;10.986;2024-02-04T06:09:34;99162.81;;;6.69;100.00
52137;BME280;69622;49.570;10.986;2024-02-04T06:12:36;99160.31;;;6.49;100.00
52137;BME280;69622;49.570;10.986;2024-02-04T06:15:38;99168.22;;;6.65;100.00
52137;BME280;69622;49.570;10.986;2024-02-04T06:18:40;99158.97;;;6.59;100.00
52137;BME280;69622;49.570;10.986;2024-02-04T06:21:42;99170.78;;;6.65;100.00
52137;BME280;69622;49.570;10.986;2024-02-04T06:24:43;99169.53;;;6.54;100.00
52137;BME280;69622;49.570;10.986;2024-02-04T06:27:45;99170.38;;;6.55;100.00
52137;BME280;69622;49.570;10.986;2024-02-04T06:30:46;99166.03;;;6.74;100.00
52137;BME280;69622;49.570;10.986;2024-02-04T06:33:48;99166.31;;;6.68;100.00
52137;BME280;69622;49.570;10.986;2024-02-04T06:36:49;99171.63;;;6.65;100.00
52137;BME280;69622;49.570;10.986;2024-02-04T06:39:54;99169.38;;;6.76;100.00
52137;BME280;69622;49.570;10.986;2024-02-04T06:42:56;99173.69;;;6.76;100.00
52137;BME280;69622;49.570;10.986;2024-02-04T06:45:57;99178.25;;;6.71;100.00
52137;BME280;69622;49.570;10.986;2024-02-04T06:48:59;99187.13;;;6.65;100.00
52137;BME280;69622;49.570;10.986;2024-02-04T06:52:00;99183.47;;;6.88;100.00
52137;BME280;69622;49.570;10.986;2024-02-04T06:55:02;99176.16;;;6.79;100.00
52137;BME280;69622;49.570;10.986;2024-02-04T06:58:03;99174.34;;;6.81;100.00
52137;BME280;69622;49.570;10.986;2024-02-04T07:01:05;99166.06;;;6.91;100.00
52137;BME280;69622;49.570;10.986;2024-02-04T07:04:07;99170.84;;;6.82;100.00
52137;BME280;69622;49.570;10.986;2024-02-04T07:07:08;99189.28;;;6.74;100.00
52137;BME280;69622;49.570;10.986;2024-02-04T07:10:10;99197.69;;;6.79;100.00
52137;BME280;69622;49.570;10.986;2024-02-04T07:13:11;99185.34;;;7.03;100.00
52137;BME280;69622;49.570;10.986;2024-02-04T07:16:13;99190.94;;;6.94;100.00
52137;BME280;69622;49.570;10.986;2024-02-04T07:19:15;99188.16;;;6.99;100.00
52137;BME280;69622;49.570;10.986;2024-02-04T07:22:17;99174.09;;;7.04;100.00
52137;BME280;69622;49.570;10.986;2024-02-04T07:25:18;99170.06;;;6.99;100.00
52137;BME280;69622;49.570;10.986;2024-02-04T07:28:20;99172.50;;;7.02;100.00
52137;BME280;69622;49.570;10.986;2024-02-04T07:31:21;99169.25;;;7.15;100.00
52137;BME280;69622;49.570;10.986;2024-02-04T07:34:24;99168.19;;;7.19;100.00
52137;BME280;69622;49.570;10.986;2024-02-04T07:37:26;99158.00;;;7.16;100.00
52137;BME280;69622;49.570;10.986;2024-02-04T07:40:27;99159.28;;;7.25;100.00
52137;BME280;69622;49.570;10.986;2024-02-04T07:43:29;99154.56;;;7.16;100.00
52137;BME280;69622;49.570;10.986;2024-02-04T07:46:30;99148.94;;;7.25;100.00
52137;BME280;69622;49.570;10.986;2024-02-04T07:49:32;99149.63;;;7.11;100.00
52137;BME280;69622;49.570;10.986;2024-02-04T07:52:34;99149.91;;;7.22;100.00
52137;BME280;69622;49.570;10.986;2024-02-04T07:55:35;99154.41;;;7.19;100.00
52137;BME280;69622;49.570;10.986;2024-02-04T07:58:37;99160.28;;;7.22;100.00
52137;BME280;69622;49.570;10.986;2024-02-04T08:01:38;99149.09;;;7.22;100.00
52137;BME280;69622;49.570;10.986;2024-02-04T08:04:41;99147.19;;;7.26;100.00
52137;BME280;69622;49.570;10.986;2024-02-04T08:07:43;99147.13;;;7.27;100.00
52137;BME280;69622;49.570;10.986;2024-02-04T08:10:44;99153.97;;;7.28;100.00
52137;BME280;69622;49.570;10.986;2024-02-04T08:13:46;99152.69;;;7.37;100.00
52137;BME280;69622;49.570;10.986;2024-02-04T08:16:47;99160.50;;;7.35;100.00
52137;BME280;69622;49.570;10.986;2024-02-04T08:19:49;99173.97;;;7.25;100.00
52137;BME280;69622;49.570;10.986;2024-02-04T08:22:52;99173.75;;;7.29;100.00
52137;BME280;69622;49.570;10.986;2024-02-04T08:25:53;99168.78;;;7.25;100.00
52137;BME280;69622;49.570;10.986;2024-02-04T08:28:55;99159.69;;;7.35;100.00
52137;BME280;69622;49.570;10.986;2024-02-04T08:31:56;99160.06;;;7.27;100.00
52137;BME280;69622;49.570;10.986;2024-02-04T08:34:58;99159.53;;;7.38;100.00
52137;BME280;69622;49.570;10.986;2024-02-04T08:37:59;99158.31;;;7.45;100.00
52137;BME280;69622;49.570;10.986;2024-02-04T08:41:01;99158.75;;;7.36;100.00
52137;BME280;69622;49.570;10.986;2024-02-04T08:44:02;99160.44;;;7.37;100.00
52137;BME280;69622;49.570;10.986;2024-02-04T08:47:04;99158.69;;;7.37;100.00
52137;BME280;69622;49.570;10.986;2024-02-04T08:50:06;99161.34;;;7.36;100.00
52137;BME280;69622;49.570;10.986;2024-02-04T08:53:08;99158.84;;;7.51;100.00
52137;BME280;69622;49.570;10.986;2024-02-04T08:56:10;99166.94;;;7.45;100.00
52137;BME280;69622;49.570;10.986;2024-02-04T08:59:11;99172.78;;;7.49;100.00
52137;BME280;69622;49.570;10.986;2024-02-04T09:02:13;99178.88;;;7.65;100.00
52137;BME280;69622;49.570;10.986;2024-02-04T09:05:14;99166.09;;;7.62;100.00
52137;BME280;69622;49.570;10.986;2024-02-04T09:08:17;99170.59;;;7.59;100.00
52137;BME280;69622;49.570;10.986;2024-02-04T09:11:19;99162.66;;;7.62;100.00
52137;BME280;69622;49.570;10.986;2024-02-04T09:14:22;99154.41;;;7.71;100.00
52137;BME280;69622;49.570;10.986;2024-02-04T09:17:23;99148.00;;;7.95;100.00
52137;BME280;69622;49.570;10.986;2024-02-04T09:20:25;99153.38;;;7.75;100.00
52137;BME280;69622;49.570;10.986;2024-02-04T09:23:26;99143.44;;;7.83;100.00
52137;BME280;69622;49.570;10.986;2024-02-04T09:26:28;99133.34;;;7.78;100.00
52137;BME280;69622;49.570;10.986;2024-02-04T09:29:30;99128.06;;;7.80;100.00
52137;BME280;69622;49.570;10.986;2024-02-04T09:32:31;99122.50;;;7.88;100.00
52137;BME280;69622;49.570;10.986;2024-02-04T09:35:33;99114.06;;;7.84;100.00
52137;BME280;69622;49.570;10.986;2024-02-04T09:38:36;99120.91;;;7.85;100.00
52137;BME280;69622;49.570;10.986;2024-02-04T09:41:38;99130.41;;;7.85;100.00
52137;BME280;69622;49.570;10.986;2024-02-04T09:44:39;99131.03;;;7.90;100.00
52137;BME280;69622;49.570;10.986;2024-02-04T09:47:42;99127.66;;;8.05;100.00
52137;BME280;69622;49.570;10.986;2024-02-04T09:50:45;99129.16;;;8.09;100.00
52137;BME280;69622;49.570;10.986;2024-02-04T09:53:52;99130.50;;;8.16;100.00
52137;BME280;69622;49.570;10.986;2024-02-04T09:56:53;99146.22;;;8.13;100.00
52137;BME280;69622;49.570;10.986;2024-02-04T09:59:55;99126.06;;;8.18;100.00
52137;BME280;69622;49.570;10.986;2024-02-04T10:02:57;99122.81;;;8.15;100.00
52137;BME280;69622;49.570;10.986;2024-02-04T10:05:59;99117.47;;;8.18;100.00
52137;BME280;69622;49.570;10.986;2024-02-04T10:09:01;99119.19;;;8.34;100.00
52137;BME280;69622;49.570;10.986;2024-02-04T10:12:03;99118.97;;;8.39;100.00
52137;BME280;69622;49.570;10.986;2024-02-04T10:15:05;99118.72;;;8.59;100.00
52137;BME280;69622;49.570;10.986;2024-02-04T10:18:08;99107.41;;;8.60;100.00
52137;BME280;69622;49.570;10.986;2024-02-04T10:21:21;99102.31;;;8.59;100.00
52137;BME280;69622;49.570;10.986;2024-02-04T10:24:23;99087.34;;;8.48;100.00
52137;BME280;69622;49.570;10.986;2024-02-04T10:27:25;99096.38;;;8.57;100.00
52137;BME280;69622;49.570;10.986;2024-02-04T10:30:38;99084.66;;;8.50;100.00
52137;BME280;69622;49.570;10.986;2024-02-04T10:33:40;99078.16;;;8.58;100.00
52137;BME280;69622;49.570;10.986;2024-02-04T10:36:42;99079.34;;;8.53;100.00
52137;BME280;69622;49.570;10.986;2024-02-04T10:39:44;99082.50;;;8.58;100.00
52137;BME280;69622;49.570;10.986;2024-02-04T10:42:46;99081.84;;;8.70;100.00
52137;BME280;69622;49.570;10.986;2024-02-04T10:45:49;99072.22;;;8.72;100.00
52137;BME280;69622;49.570;10.986;2024-02-04T10:48:56;99081.66;;;8.57;100.00
52137;BME280;69622;49.570;10.986;2024-02-04T10:51:59;99079.00;;;8.59;100.00
52137;BME280;69622;49.570;10.986;2024-02-04T10:55:04;99090.09;;;8.61;100.00
52137;BME280;69622;49.570;10.986;2024-02-04T10:58:08;99080.22;;;8.67;100.00
52137;BME280;69622;49.570;10.986;2024-02-04T11:01:11;99065.69;;;8.65;100.00
52137;BME280;69622;49.570;10.986;2024-02-04T11:04:13;99053.47;;;8.67;100.00
52137;BME280;69622;49.570;10.986;2024-02-04T11:07:17;99061.78;;;8.58;100.00
52137;BME280;69622;49.570;10.986;2024-02-04T11:10:19;99065.78;;;8.48;100.00
52137;BME280;69622;49.570;10.986;2024-02-04T11:13:22;99059.75;;;8.47;100.00
52137;BME280;69622;49.570;10.986;2024-02-04T11:20:21;99061.13;;;8.38;100.00
52137;BME280;69622;49.570;10.986;2024-02-04T11:23:37;99065.19;;;8.43;100.00
52137;BME280;69622;49.570;10.986;2024-02-04T11:26:43;99057.69;;;8.38;100.00
52137;BME280;69622;49.570;10.986;2024-02-04T11:29:45;99045.56;;;8.38;100.00
52137;BME280;69622;49.570;10.986;2024-02-04T11:32:46;99043.81;;;8.39;100.00
52137;BME280;69622;49.570;10.986;2024-02-04T11:36:04;99035.91;;;8.25;100.00
52137;BME280;69622;49.570;10.986;2024-02-04T11:39:12;99033.66;;;8.19;100.00
52137;BME280;69622;49.570;10.986;2024-02-04T11:42:17;99022.22;;;8.23;100.00
52137;BME280;69622;49.570;10.986;2024-02-04T11:45:19;99019.53;;;8.24;100.00
52137;BME280;69622;49.570;10.986;2024-02-04T11:48:37;99026.47;;;8.24;100.00
52137;BME280;69622;49.570;10.986;2024-02-04T11:51:40;99028.31;;;8.22;100.00
52137;BME280;69622;49.570;10.986;2024-02-04T11:54:43;99024.47;;;8.29;100.00
52137;BME280;69622;49.570;10.986;2024-02-04T11:57:45;99034.50;;;8.35;100.00
52137;BME280;69622;49.570;10.986;2024-02-04T12:00:47;99022.34;;;8.37;100.00
52137;BME280;69622;49.570;10.986;2024-02-04T12:03:51;99021.78;;;8.30;100.00
52137;BME280;69622;49.570;10.986;2024-02-04T12:06:53;99012.38;;;8.45;100.00
52137;BME280;69622;49.570;10.986;2024-02-04T12:09:55;99010.25;;;8.52;100.00
52137;BME280;69622;49.570;10.986;2024-02-04T12:13:03;99008.25;;;8.57;100.00
52137;BME280;69622;49.570;10.986;2024-02-04T12:16:06;99008.94;;;8.45;100.00
52137;BME280;69622;49.570;10.986;2024-02-04T12:19:09;98997.53;;;8.31;100.00
52137;BME280;69622;49.570;10.986;2024-02-04T12:22:11;98998.47;;;8.46;100.00
52137;BME280;69622;49.570;10.986;2024-02-04T12:25:13;98996.34;;;8.38;100.00
52137;BME280;69622;49.570;10.986;2024-02-04T12:28:15;98993.88;;;8.51;100.00
52137;BME280;69622;49.570;10.986;2024-02-04T12:31:20;98998.91;;;8.54;100.00
52137;BME280;69622;49.570;10.986;2024-02-04T12:34:22;99003.16;;;8.55;100.00
52137;BME280;69622;49.570;10.986;2024-02-04T12:37:24;99008.34;;;8.55;100.00
52137;BME280;69622;49.570;10.986;2024-02-04T12:40:29;99011.53;;;8.45;100.00
52137;BME280;69622;49.570;10.986;2024-02-04T12:43:31;99005.50;;;8.44;100.00
52137;BME280;69622;49.570;10.986;2024-02-04T12:46:32;99001.72;;;8.50;100.00
52137;BME280;69622;49.570;10.986;2024-02-04T12:49:34;99002.66;;;8.49;100.00
52137;BME280;69622;49.570;10.986;2024-02-04T12:52:36;99011.88;;;8.54;100.00
52137;BME280;69622;49.570;10.986;2024-02-04T12:55:40;99001.38;;;8.72;100.00
52137;BME280;69622;49.570;10.986;2024-02-04T12:58:44;99001.13;;;8.60;100.00
52137;BME280;69622;49.570;10.986;2024-02-04T13:01:45;98990.53;;;8.49;100.00
52137;BME280;69622;49.570;10.986;2024-02-04T13:04:47;98982.34;;;8.57;100.00
52137;BME280;69622;49.570;10.986;2024-02-04T13:07:51;98983.56;;;8.65;100.00
52137;BME280;69622;49.570;10.986;2024-02-04T13:10:54;98982.63;;;8.66;100.00
52137;BME280;69622;49.570;10.986;2024-02-04T13:13:58;98975.81;;;8.50;100.00
52137;BME280;69622;49.570;10.986;2024-02-04T13:17:00;98975.31;;;8.59;100.00
52137;BME280;69622;49.570;10.986;2024-02-04T13:20:01;98976.50;;;8.53;100.00
52137;BME280;69622;49.570;10.986;2024-02-04T13:23:03;98967.31;;;8.78;100.00
52137;BME280;69622;49.570;10.986;2024-02-04T13:26:06;98953.06;;;8.85;100.00
52137;BME280;69622;49.570;10.986;2024-02-04T13:29:08;98950.66;;;8.96;100.00
52137;BME280;69622;49.570;10.986;2024-02-04T13:32:10;98952.66;;;8.77;100.00
52137;BME280;69622;49.570;10.986;2024-02-04T13:35:11;98957.06;;;8.90;100.00
52137;BME280;69622;49.570;10.986;2024-02-04T13:38:20;98954.84;;;8.84;100.00
52137;BME280;69622;49.570;10.986;2024-02-04T13:41:21;98940.38;;;8.94;100.00
52137;BME280;69622;49.570;10.986;2024-02-04T13:44:23;98962.69;;;8.83;100.00
52137;BME280;69622;49.570;10.986;2024-02-04T13:47:24;98964.06;;;8.74;100.00
52137;BME280;69622;49.570;10.986;2024-02-04T13:50:26;98954.28;;;8.63;100.00
52137;BME280;69622;49.570;10.986;2024-02-04T13:53:28;98964.84;;;8.60;100.00
52137;BME280;69622;49.570;10.986;2024-02-04T13:56:29;98976.53;;;8.67;100.00
52137;BME280;69622;49.570;10.986;2024-02-04T13:59:31;98967.91;;;8.67;100.00
52137;BME280;69622;49.570;10.986;2024-02-04T14:02:32;98975.69;;;8.67;100.00
52137;BME280;69622;49.570;10.986;2024-02-04T14:05:34;98978.88;;;8.72;100.00
52137;BME280;69622;49.570;10.986;2024-02-04T14:08:36;98967.16;;;8.65;100.00
52137;BME280;69622;49.570;10.986;2024-02-04T14:11:37;98981.06;;;8.64;100.00
52137;BME280;69622;49.570;10.986;2024-02-04T14:14:39;98984.50;;;8.49;100.00
52137;BME280;69622;49.570;10.986;2024-02-04T14:17:41;98979.13;;;8.37;100.00
52137;BME280;69622;49.570;10.986;2024-02-04T14:20:42;98997.63;;;8.30;100.00
52137;BME280;69622;49.570;10.986;2024-02-04T14:23:44;98997.56;;;8.47;100.00
52137;BME280;69622;49.570;10.986;2024-02-04T14:26:45;99009.94;;;8.42;100.00
52137;BME280;69622;49.570;10.986;2024-02-04T14:29:47;99001.81;;;8.32;100.00
52137;BME280;69622;49.570;10.986;2024-02-04T14:32:49;99001.91;;;8.31;100.00
52137;BME280;69622;49.570;10.986;2024-02-04T14:35:50;99025.06;;;8.34;100.00
52137;BME280;69622;49.570;10.986;2024-02-04T14:38:52;99014.09;;;8.29;100.00
52137;BME280;69622;49.570;10.986;2024-02-04T14:41:53;99007.50;;;8.23;100.00
52137;BME280;69622;49.570;10.986;2024-02-04T14:44:55;98995.81;;;8.16;100.00
52137;BME280;69622;49.570;10.986;2024-02-04T14:47:57;98997.25;;;8.22;100.00
52137;BME280;69622;49.570;10.986;2024-02-04T14:50:58;98994.13;;;8.31;100.00
52137;BME280;69622;49.570;10.986;2024-02-04T14:54:00;98980.09;;;8.35;100.00
52137;BME280;69622;49.570;10.986;2024-02-04T14:57:01;98983.66;;;8.32;100.00
52137;BME280;69622;49.570;10.986;2024-02-04T15:00:03;98988.38;;;8.10;100.00
52137;BME280;69622;49.570;10.986;2024-02-04T15:03:05;98983.84;;;8.29;100.00
52137;BME280;69622;49.570;10.986;2024-02-04T15:06:07;98987.03;;;8.19;100.00
52137;BME280;69622;49.570;10.986;2024-02-04T15:09:08;98983.84;;;8.29;100.00
52137;BME280;69622;49.570;10.986;2024-02-04T15:12:11;98987.53;;;8.25;100.00
52137;BME280;69622;49.570;10.986;2024-02-04T15:15:16;98978.94;;;8.25;100.00
52137;BME280;69622;49.570;10.986;2024-02-04T15:18:17;98976.84;;;8.16;100.00
52137;BME280;69622;49.570;10.986;2024-02-04T15:21:20;98965.72;;;8.14;100.00
52137;BME280;69622;49.570;10.986;2024-02-04T15:24:21;98957.38;;;8.08;100.00
52137;BME280;69622;49.570;10.986;2024-02-04T15:27:26;98969.06;;;8.16;100.00
52137;BME280;69622;49.570;10.986;2024-02-04T15:30:31;98970.50;;;8.05;100.00
52137;BME280;69622;49.570;10.986;2024-02-04T15:33:33;98977.09;;;8.11;100.00
52137;BME280;69622;49.570;10.986;2024-02-04T15:36:35;98978.00;;;8.10;100.00
52137;BME280;69622;49.570;10.986;2024-02-04T15:39:38;98988.47;;;8.24;100.00
52137;BME280;69622;49.570;10.986;2024-02-04T15:42:40;98979.84;;;8.24;100.00
52137;BME280;69622;49.570;10.986;2024-02-04T15:45:42;98961.91;;;8.21;100.00
52137;BME280;69622;49.570;10.986;2024-02-04T15:48:45;98981.00;;;8.18;100.00
52137;BME280;69622;49.570;10.986;2024-02-04T15:51:49;98968.75;;;8.06;100.00
52137;BME280;69622;49.570;10.986;2024-02-04T15:54:52;98964.22;;;8.09;100.00
52137;BME280;69622;49.570;10.986;2024-02-04T15:57:53;98971.66;;;8.16;100.00
52137;BME280;69622;49.570;10.986;2024-02-04T16:00:58;98969.22;;;8.13;100.00
52137;BME280;69622;49.570;10.986;2024-02-04T16:04:00;98966.63;;;8.28;100.00